sensor_id;sensor_type;location;lat;lon;timestamp;pressure;altitude;pressure_sealevel;temperature;humidity
9059;BME280;4564;42.034;25.834;2023-05-07T00:00:09;100474.06;;;12.58;95.62
9059;BME280;4564;42.034;25.834;2023-05-07T00:02:36;100475.06;;;12.51;95.27
9059;BME280;4564;42.034;25.834;2023-05-07T00:05:03;100471.50;;;12.50;95.62
9059;BME280;4564;42.034;25.834;2023-05-07T00:07:30;100469.97;;;12.48;95.83
9059;BME280;4564;42.034;25.834;2023-05-07T00:09:57;100468.69;;;12.44;96.28
9059;BME280;4564;42.034;25.834;2023-05-07T00:12:23;100471.59;;;12.42;95.90
9059;BME280;4564;42.034;25.834;2023-05-07T00:14:50;100466.75;;;12.38;96.07
9059;BME280;4564;42.034;25.834;2023-05-07T00:17:18;100463.78;;;12.33;95.90
9059;BME280;4564;42.034;25.834;2023-05-07T00:19:45;100462.47;;;12.29;96.36
9059;BME280;4564;42.034;25.834;2023-05-07T00:22:11;100469.09;;;12.19;96.17
9059;BME280;4564;42.034;25.834;2023-05-07T00:24:38;100460.69;;;12.14;96.55
9059;BME280;4564;42.034;25.834;2023-05-07T00:27:04;100459.56;;;12.09;96.39
9059;BME280;4564;42.034;25.834;2023-05-07T00:29:31;100461.44;;;12.08;97.26
9059;BME280;4564;42.034;25.834;2023-05-07T00:31:58;100454.25;;;12.01;97.43
9059;BME280;4564;42.034;25.834;2023-05-07T00:34:26;100453.97;;;11.96;97.62
9059;BME280;4564;42.034;25.834;2023-05-07T00:36:53;100453.72;;;11.91;97.76
9059;BME280;4564;42.034;25.834;2023-05-07T00:39:19;100453.53;;;11.92;98.15
9059;BME280;4564;42.034;25.834;2023-05-07T00:41:46;100456.44;;;11.91;98.38
9059;BME280;4564;42.034;25.834;2023-05-07T00:44:12;100453.31;;;11.94;98.45
9059;BME280;4564;42.034;25.834;2023-05-07T00:46:39;100456.63;;;11.89;98.79
9059;BME280;4564;42.034;25.834;2023-05-07T00:49:06;100454.56;;;11.91;99.20
9059;BME280;4564;42.034;25.834;2023-05-07T00:51:34;100458.13;;;11.92;99.29
9059;BME280;4564;42.034;25.834;2023-05-07T00:54:01;100459.16;;;11.91;99.73
9059;BME280;4564;42.034;25.834;2023-05-07T00:56:28;100466.91;;;11.94;100.00
9059;BME280;4564;42.034;25.834;2023-05-07T00:58:54;100466.06;;;11.93;100.00
9059;BME280;4564;42.034;25.834;2023-05-07T01:01:21;100457.28;;;11.91;100.00
9059;BME280;4564;42.034;25.834;2023-05-07T01:03:48;100460.75;;;11.85;99.74
9059;BME280;4564;42.034;25.834;2023-05-07T01:06:14;100451.56;;;11.86;100.00
9059;BME280;4564;42.034;25.834;2023-05-07T01:08:43;100455.06;;;11.80;100.00
9059;BME280;4564;42.034;25.834;2023-05-07T01:11:10;100456.66;;;11.74;99.51
9059;BME280;4564;42.034;25.834;2023-05-07T01:13:37;100451.50;;;11.65;99.86
9059;BME280;4564;42.034;25.834;2023-05-07T01:16:05;100452.34;;;11.65;99.15
9059;BME280;4564;42.034;25.834;2023-05-07T01:18:31;100453.75;;;11.47;99.14
9059;BME280;4564;42.034;25.834;2023-05-07T01:20:58;100453.88;;;11.39;99.64
9059;BME280;4564;42.034;25.834;2023-05-07T01:23:26;100446.84;;;11.29;99.97
9059;BME280;4564;42.034;25.834;2023-05-07T01:25:53;100454.34;;;11.27;99.91
9059;BME280;4564;42.034;25.834;2023-05-07T01:28:20;100461.16;;;11.23;100.00
9059;BME280;4564;42.034;25.834;2023-05-07T01:30:48;100459.88;;;11.19;100.00
9059;BME280;4564;42.034;25.834;2023-05-07T01:33:15;100453.97;;;11.16;100.00
9059;BME280;4564;42.034;25.834;2023-05-07T01:35:43;100456.69;;;11.16;100.00
9059;BME280;4564;42.034;25.834;2023-05-07T01:38:11;100458.28;;;11.10;100.00
9059;BME280;4564;42.034;25.834;2023-05-07T01:40:40;100463.72;;;11.10;100.00
9059;BME280;4564;42.034;25.834;2023-05-07T01:43:06;100465.75;;;11.08;100.00
9059;BME280;4564;42.034;25.834;2023-05-07T01:45:33;100458.63;;;11.07;100.00
9059;BME280;4564;42.034;25.834;2023-05-07T01:48:01;100453.19;;;11.07;100.00
9059;BME280;4564;42.034;25.834;2023-05-07T01:50:28;100451.91;;;11.03;100.00
9059;BME280;4564;42.034;25.834;2023-05-07T01:52:55;100449.94;;;10.97;100.00
9059;BME280;4564;42.034;25.834;2023-05-07T01:55:21;100447.22;;;10.97;100.00
9059;BME280;4564;42.034;25.834;2023-05-07T01:57:50;100447.22;;;10.97;100.00
9059;BME280;4564;42.034;25.834;2023-05-07T02:00:17;100434.66;;;10.96;100.00
9059;BME280;4564;42.034;25.834;2023-05-07T02:02:44;100440.84;;;10.90;100.00
9059;BME280;4564;42.034;25.834;2023-05-07T02:05:10;100444.94;;;10.86;100.00
9059;BME280;4564;42.034;25.834;2023-05-07T02:07:37;100437.75;;;10.78;100.00
9059;BME280;4564;42.034;25.834;2023-05-07T02:10:04;100440.72;;;10.69;100.00
9059;BME280;4564;42.034;25.834;2023-05-07T02:12:31;100431.47;;;10.63;100.00
9059;BME280;4564;42.034;25.834;2023-05-07T02:14:59;100428.44;;;10.58;100.00
9059;BME280;4564;42.034;25.834;2023-05-07T02:17:25;100433.69;;;10.60;100.00
9059;BME280;4564;42.034;25.834;2023-05-07T02:19:52;100432.66;;;10.61;100.00
9059;BME280;4564;42.034;25.834;2023-05-07T02:22:18;100436.38;;;10.60;100.00
9059;BME280;4564;42.034;25.834;2023-05-07T02:24:45;100437.22;;;10.45;100.00
9059;BME280;4564;42.034;25.834;2023-05-07T02:27:11;100432.06;;;10.50;100.00
9059;BME280;4564;42.034;25.834;2023-05-07T02:29:38;100434.69;;;10.59;100.00
9059;BME280;4564;42.034;25.834;2023-05-07T02:32:06;100428.69;;;10.48;100.00
9059;BME280;4564;42.034;25.834;2023-05-07T02:34:33;100429.13;;;10.37;100.00
9059;BME280;4564;42.034;25.834;2023-05-07T02:36:59;100436.66;;;10.27;100.00
9059;BME280;4564;42.034;25.834;2023-05-07T02:39:26;100431.25;;;10.27;100.00
9059;BME280;4564;42.034;25.834;2023-05-07T02:41:52;100431.63;;;10.24;100.00
9059;BME280;4564;42.034;25.834;2023-05-07T02:44:19;100440.78;;;10.23;100.00
9059;BME280;4564;42.034;25.834;2023-05-07T02:46:45;100428.63;;;10.11;100.00
9059;BME280;4564;42.034;25.834;2023-05-07T02:49:13;100436.53;;;9.98;100.00
9059;BME280;4564;42.034;25.834;2023-05-07T02:51:40;100436.13;;;9.78;100.00
9059;BME280;4564;42.034;25.834;2023-05-07T02:54:06;100431.56;;;9.79;100.00
9059;BME280;4564;42.034;25.834;2023-05-07T02:56:33;100431.72;;;9.77;100.00
9059;BME280;4564;42.034;25.834;2023-05-07T02:59:00;100432.97;;;9.75;100.00
9059;BME280;4564;42.034;25.834;2023-05-07T03:01:26;100438.66;;;9.88;100.00
9059;BME280;4564;42.034;25.834;2023-05-07T03:03:53;100427.06;;;9.94;100.00
9059;BME280;4564;42.034;25.834;2023-05-07T03:06:21;100424.47;;;10.00;100.00
9059;BME280;4564;42.034;25.834;2023-05-07T03:08:48;100431.16;;;10.13;100.00
9059;BME280;4564;42.034;25.834;2023-05-07T03:11:14;100429.94;;;10.15;100.00
9059;BME280;4564;42.034;25.834;2023-05-07T03:13:41;100430.66;;;10.17;100.00
9059;BME280;4564;42.034;25.834;2023-05-07T03:16:08;100431.66;;;10.16;100.00
9059;BME280;4564;42.034;25.834;2023-05-07T03:18:34;100436.66;;;10.27;100.00
9059;BME280;4564;42.034;25.834;2023-05-07T03:21:01;100432.28;;;10.26;100.00
9059;BME280;4564;42.034;25.834;2023-05-07T03:23:29;100433.38;;;10.17;100.00
9059;BME280;4564;42.034;25.834;2023-05-07T03:25:55;100435.75;;;10.12;100.00
9059;BME280;4564;42.034;25.834;2023-05-07T03:28:22;100442.53;;;10.16;100.00
9059;BME280;4564;42.034;25.834;2023-05-07T03:30:48;100444.88;;;10.19;100.00
9059;BME280;4564;42.034;25.834;2023-05-07T03:33:15;100439.97;;;10.15;100.00
9059;BME280;4564;42.034;25.834;2023-05-07T03:35:42;100442.53;;;10.16;100.00
9059;BME280;4564;42.034;25.834;2023-05-07T03:38:08;100445.41;;;10.15;100.00
9059;BME280;4564;42.034;25.834;2023-05-07T03:40:36;100445.19;;;10.24;100.00
9059;BME280;4564;42.034;25.834;2023-05-07T03:43:03;100445.47;;;10.29;100.00
9059;BME280;4564;42.034;25.834;2023-05-07T03:45:29;100454.47;;;10.30;100.00
9059;BME280;4564;42.034;25.834;2023-05-07T03:47:56;100453.66;;;10.21;100.00
9059;BME280;4564;42.034;25.834;2023-05-07T03:50:22;100450.78;;;10.23;100.00
9059;BME280;4564;42.034;25.834;2023-05-07T03:52:49;100457.66;;;10.33;100.00
9059;BME280;4564;42.034;25.834;2023-05-07T03:55:16;100463.38;;;10.38;100.00
9059;BME280;4564;42.034;25.834;2023-05-07T03:57:44;100460.09;;;10.43;100.00
9059;BME280;4564;42.034;25.834;2023-05-07T04:00:11;100465.31;;;10.52;100.00
9059;BME280;4564;42.034;25.834;2023-05-07T04:02:38;100469.97;;;10.59;100.00
9059;BME280;4564;42.034;25.834;2023-05-07T04:05:04;100471.59;;;10.68;100.00
9059;BME280;4564;42.034;25.834;2023-05-07T04:07:31;100475.25;;;10.75;100.00
9059;BME280;4564;42.034;25.834;2023-05-07T04:09:58;100475.09;;;10.91;100.00
9059;BME280;4564;42.034;25.834;2023-05-07T04:12:24;100481.47;;;10.98;99.41
9059;BME280;4564;42.034;25.834;2023-05-07T04:14:52;100478.69;;;11.06;98.97
9059;BME280;4564;42.034;25.834;2023-05-07T04:17:18;100481.13;;;11.16;98.69
9059;BME280;4564;42.034;25.834;2023-05-07T04:19:45;100484.47;;;11.03;98.18
9059;BME280;4564;42.034;25.834;2023-05-07T04:22:12;100487.03;;;11.19;98.31
9059;BME280;4564;42.034;25.834;2023-05-07T04:24:38;100496.41;;;11.46;96.83
9059;BME280;4564;42.034;25.834;2023-05-07T04:27:05;100491.63;;;11.48;95.64
9059;BME280;4564;42.034;25.834;2023-05-07T04:29:31;100494.63;;;11.39;95.86
9059;BME280;4564;42.034;25.834;2023-05-07T04:31:59;100495.66;;;11.52;95.76
9059;BME280;4564;42.034;25.834;2023-05-07T04:34:26;100498.72;;;11.34;97.99
9059;BME280;4564;42.034;25.834;2023-05-07T04:36:53;100494.34;;;11.33;98.69
9059;BME280;4564;42.034;25.834;2023-05-07T04:39:19;100500.97;;;11.46;98.48
9059;BME280;4564;42.034;25.834;2023-05-07T04:41:46;100493.75;;;11.67;98.05
9059;BME280;4564;42.034;25.834;2023-05-07T04:44:12;100503.31;;;11.93;96.90
9059;BME280;4564;42.034;25.834;2023-05-07T04:46:39;100503.72;;;12.11;95.77
9059;BME280;4564;42.034;25.834;2023-05-07T04:49:07;100504.47;;;12.19;96.17
9059;BME280;4564;42.034;25.834;2023-05-07T04:51:34;100506.81;;;12.44;95.43
9059;BME280;4564;42.034;25.834;2023-05-07T04:54:00;100505.75;;;12.66;94.96
9059;BME280;4564;42.034;25.834;2023-05-07T04:56:27;100508.72;;;12.92;94.27
9059;BME280;4564;42.034;25.834;2023-05-07T04:58:55;100516.25;;;13.12;93.70
9059;BME280;4564;42.034;25.834;2023-05-07T05:01:21;100517.28;;;13.38;92.21
9059;BME280;4564;42.034;25.834;2023-05-07T05:03:48;100516.97;;;13.61;92.04
9059;BME280;4564;42.034;25.834;2023-05-07T05:06:16;100525.09;;;13.48;92.35
9059;BME280;4564;42.034;25.834;2023-05-07T05:08:42;100516.72;;;13.56;92.19
9059;BME280;4564;42.034;25.834;2023-05-07T05:11:09;100522.41;;;13.61;92.01
9059;BME280;4564;42.034;25.834;2023-05-07T05:13:36;100531.28;;;13.70;92.26
9059;BME280;4564;42.034;25.834;2023-05-07T05:16:02;100521.97;;;13.99;92.69
9059;BME280;4564;42.034;25.834;2023-05-07T05:18:29;100528.69;;;15.42;90.38
9059;BME280;4564;42.034;25.834;2023-05-07T05:20:55;100534.63;;;17.11;81.31
9059;BME280;4564;42.034;25.834;2023-05-07T05:23:23;100537.00;;;18.71;73.71
9059;BME280;4564;42.034;25.834;2023-05-07T05:25:50;100542.59;;;20.51;67.22
9059;BME280;4564;42.034;25.834;2023-05-07T05:28:21;100542.53;;;22.88;58.54
9059;BME280;4564;42.034;25.834;2023-05-07T05:30:48;100546.50;;;24.96;51.39
9059;BME280;4564;42.034;25.834;2023-05-07T05:33:14;100552.84;;;25.92;47.18
9059;BME280;4564;42.034;25.834;2023-05-07T05:35:41;100557.38;;;26.53;45.57
9059;BME280;4564;42.034;25.834;2023-05-07T05:38:08;100559.34;;;27.35;42.01
9059;BME280;4564;42.034;25.834;2023-05-07T05:40:36;100558.63;;;27.82;39.49
9059;BME280;4564;42.034;25.834;2023-05-07T05:43:02;100554.03;;;28.44;37.85
9059;BME280;4564;42.034;25.834;2023-05-07T05:45:29;100565.38;;;28.29;38.68
9059;BME280;4564;42.034;25.834;2023-05-07T05:47:55;100567.50;;;27.89;38.59
9059;BME280;4564;42.034;25.834;2023-05-07T05:50:22;100568.91;;;27.87;38.10
9059;BME280;4564;42.034;25.834;2023-05-07T05:52:49;100573.97;;;28.99;37.36
9059;BME280;4564;42.034;25.834;2023-05-07T05:55:16;100565.00;;;28.59;37.98
9059;BME280;4564;42.034;25.834;2023-05-07T05:57:44;100561.78;;;28.90;36.88
9059;BME280;4564;42.034;25.834;2023-05-07T06:00:10;100572.63;;;29.29;35.25
9059;BME280;4564;42.034;25.834;2023-05-07T06:02:37;100569.34;;;29.59;35.85
9059;BME280;4564;42.034;25.834;2023-05-07T06:05:04;100573.91;;;30.69;33.42
9059;BME280;4564;42.034;25.834;2023-05-07T06:07:31;100562.47;;;30.79;33.27
9059;BME280;4564;42.034;25.834;2023-05-07T06:09:58;100574.66;;;30.97;32.74
9059;BME280;4564;42.034;25.834;2023-05-07T06:12:24;100577.00;;;31.17;32.12
9059;BME280;4564;42.034;25.834;2023-05-07T06:14:52;100571.53;;;31.57;32.32
9059;BME280;4564;42.034;25.834;2023-05-07T06:17:19;100572.56;;;31.61;30.46
9059;BME280;4564;42.034;25.834;2023-05-07T06:19:45;100574.09;;;31.67;31.40
9059;BME280;4564;42.034;25.834;2023-05-07T06:22:12;100571.81;;;31.47;31.25
9059;BME280;4564;42.034;25.834;2023-05-07T06:24:38;100567.34;;;31.68;30.58
9059;BME280;4564;42.034;25.834;2023-05-07T06:27:05;100569.75;;;31.39;30.61
9059;BME280;4564;42.034;25.834;2023-05-07T06:29:31;100569.13;;;32.26;27.85
9059;BME280;4564;42.034;25.834;2023-05-07T06:32:07;100567.00;;;31.03;29.91
9059;BME280;4564;42.034;25.834;2023-05-07T06:34:34;100566.09;;;30.80;30.57
9059;BME280;4564;42.034;25.834;2023-05-07T06:37:00;100559.06;;;30.69;30.18
9059;BME280;4564;42.034;25.834;2023-05-07T06:39:27;100565.69;;;30.73;28.65
9059;BME280;4564;42.034;25.834;2023-05-07T06:41:53;100574.03;;;31.00;28.38
9059;BME280;4564;42.034;25.834;2023-05-07T06:44:20;100564.84;;;31.97;28.13
9059;BME280;4564;42.034;25.834;2023-05-07T06:46:46;100568.06;;;32.13;27.75
9059;BME280;4564;42.034;25.834;2023-05-07T06:49:14;100571.41;;;32.24;27.05
9059;BME280;4564;42.034;25.834;2023-05-07T06:51:41;100569.13;;;32.26;27.44
9059;BME280;4564;42.034;25.834;2023-05-07T06:54:08;100572.69;;;32.57;27.17
9059;BME280;4564;42.034;25.834;2023-05-07T06:56:34;100565.97;;;33.01;26.03
9059;BME280;4564;42.034;25.834;2023-05-07T06:59:01;100574.13;;;33.20;25.73
9059;BME280;4564;42.034;25.834;2023-05-07T07:01:28;100584.22;;;33.21;24.79
9059;BME280;4564;42.034;25.834;2023-05-07T07:03:54;100579.06;;;33.57;26.04
9059;BME280;4564;42.034;25.834;2023-05-07T07:06:22;100566.63;;;33.15;24.76
9059;BME280;4564;42.034;25.834;2023-05-07T07:08:49;100576.91;;;33.11;25.09
9059;BME280;4564;42.034;25.834;2023-05-07T07:11:16;100565.81;;;33.32;25.37
9059;BME280;4564;42.034;25.834;2023-05-07T07:13:42;100576.91;;;32.85;25.38
9059;BME280;4564;42.034;25.834;2023-05-07T07:16:09;100567.41;;;32.64;25.92
9059;BME280;4564;42.034;25.834;2023-05-07T07:18:36;100583.31;;;33.89;23.55
9059;BME280;4564;42.034;25.834;2023-05-07T07:21:02;100577.25;;;33.44;23.83
9059;BME280;4564;42.034;25.834;2023-05-07T07:23:31;100572.78;;;32.92;23.82
9059;BME280;4564;42.034;25.834;2023-05-07T07:25:57;100578.59;;;33.29;24.14
9059;BME280;4564;42.034;25.834;2023-05-07T07:28:24;100567.31;;;32.95;23.38
9059;BME280;4564;42.034;25.834;2023-05-07T07:30:50;100568.13;;;33.13;24.54
9059;BME280;4564;42.034;25.834;2023-05-07T07:33:17;100575.41;;;32.71;23.95
9059;BME280;4564;42.034;25.834;2023-05-07T07:35:43;100574.81;;;32.52;23.03
9059;BME280;4564;42.034;25.834;2023-05-07T07:38:10;100585.38;;;33.20;23.49
9059;BME280;4564;42.034;25.834;2023-05-07T07:40:38;100578.53;;;32.30;23.96
9059;BME280;4564;42.034;25.834;2023-05-07T07:43:05;100583.44;;;32.64;23.00
9059;BME280;4564;42.034;25.834;2023-05-07T07:45:31;100585.53;;;32.41;22.46
9059;BME280;4564;42.034;25.834;2023-05-07T07:47:58;100580.50;;;31.90;23.80
9059;BME280;4564;42.034;25.834;2023-05-07T07:50:24;100581.53;;;32.81;22.70
9059;BME280;4564;42.034;25.834;2023-05-07T07:52:51;100579.41;;;33.13;22.52
9059;BME280;4564;42.034;25.834;2023-05-07T07:55:19;100585.44;;;34.01;21.61
9059;BME280;4564;42.034;25.834;2023-05-07T07:57:49;100586.88;;;34.07;20.28
9059;BME280;4564;42.034;25.834;2023-05-07T08:00:16;100576.09;;;31.53;22.60
9059;BME280;4564;42.034;25.834;2023-05-07T08:02:42;100581.34;;;29.92;23.47
9059;BME280;4564;42.034;25.834;2023-05-07T08:05:09;100572.16;;;28.47;26.11
9059;BME280;4564;42.034;25.834;2023-05-07T08:07:35;100576.50;;;27.19;28.21
9059;BME280;4564;42.034;25.834;2023-05-07T08:10:02;100576.25;;;27.10;29.30
9059;BME280;4564;42.034;25.834;2023-05-07T08:12:29;100584.50;;;27.30;27.90
9059;BME280;4564;42.034;25.834;2023-05-07T08:14:57;100571.97;;;26.79;29.78
9059;BME280;4564;42.034;25.834;2023-05-07T08:17:23;100566.97;;;26.26;31.10
9059;BME280;4564;42.034;25.834;2023-05-07T08:19:50;100573.50;;;26.61;29.30
9059;BME280;4564;42.034;25.834;2023-05-07T08:22:17;100569.97;;;26.40;29.66
9059;BME280;4564;42.034;25.834;2023-05-07T08:24:43;100569.75;;;26.16;30.51
9059;BME280;4564;42.034;25.834;2023-05-07T08:27:11;100561.41;;;26.26;30.57
9059;BME280;4564;42.034;25.834;2023-05-07T08:29:37;100574.59;;;25.60;30.37
9059;BME280;4564;42.034;25.834;2023-05-07T08:32:05;100569.88;;;25.10;32.37
9059;BME280;4564;42.034;25.834;2023-05-07T08:34:32;100562.09;;;25.27;32.38
9059;BME280;4564;42.034;25.834;2023-05-07T08:36:58;100562.09;;;25.12;30.80
9059;BME280;4564;42.034;25.834;2023-05-07T08:39:25;100556.00;;;25.10;31.83
9059;BME280;4564;42.034;25.834;2023-05-07T08:41:51;100548.66;;;24.74;30.60
9059;BME280;4564;42.034;25.834;2023-05-07T08:44:21;100549.09;;;24.30;31.57
9059;BME280;4564;42.034;25.834;2023-05-07T08:46:48;100550.06;;;24.09;31.96
9059;BME280;4564;42.034;25.834;2023-05-07T08:49:18;100550.00;;;23.94;31.35
9059;BME280;4564;42.034;25.834;2023-05-07T08:51:44;100556.84;;;23.81;32.30
9059;BME280;4564;42.034;25.834;2023-05-07T08:54:11;100545.56;;;23.93;32.46
9059;BME280;4564;42.034;25.834;2023-05-07T08:56:38;100550.22;;;23.82;33.46
9059;BME280;4564;42.034;25.834;2023-05-07T08:59:06;100547.75;;;23.86;32.21
9059;BME280;4564;42.034;25.834;2023-05-07T09:01:32;100546.56;;;23.76;32.58
9059;BME280;4564;42.034;25.834;2023-05-07T09:04:00;100547.38;;;23.35;32.93
9059;BME280;4564;42.034;25.834;2023-05-07T09:06:28;100526.84;;;23.31;32.58
9059;BME280;4564;42.034;25.834;2023-05-07T09:08:55;100535.38;;;23.56;33.60
9059;BME280;4564;42.034;25.834;2023-05-07T09:11:23;100543.72;;;23.29;33.17
9059;BME280;4564;42.034;25.834;2023-05-07T09:13:53;100550.03;;;23.20;32.65
9059;BME280;4564;42.034;25.834;2023-05-07T09:16:20;100548.81;;;23.11;32.77
9059;BME280;4564;42.034;25.834;2023-05-07T09:18:48;100541.34;;;23.11;33.26
9059;BME280;4564;42.034;25.834;2023-05-07T09:21:17;100536.56;;;23.01;31.88
9059;BME280;4564;42.034;25.834;2023-05-07T09:23:45;100546.00;;;23.06;32.93
9059;BME280;4564;42.034;25.834;2023-05-07T09:26:12;100531.19;;;23.22;32.86
9059;BME280;4564;42.034;25.834;2023-05-07T09:28:39;100533.63;;;23.13;33.57
9059;BME280;4564;42.034;25.834;2023-05-07T09:31:06;100516.78;;;23.20;33.91
9059;BME280;4564;42.034;25.834;2023-05-07T09:33:33;100527.94;;;23.30;34.35
9059;BME280;4564;42.034;25.834;2023-05-07T09:36:02;100520.28;;;23.42;33.58
9059;BME280;4564;42.034;25.834;2023-05-07T09:38:28;100515.69;;;23.21;32.38
9059;BME280;4564;42.034;25.834;2023-05-07T09:41:03;100513.69;;;23.16;32.46
9059;BME280;4564;42.034;25.834;2023-05-07T09:43:31;100514.06;;;23.25;32.33
9059;BME280;4564;42.034;25.834;2023-05-07T09:45:58;100515.50;;;23.00;32.52
9059;BME280;4564;42.034;25.834;2023-05-07T09:48:25;100507.75;;;22.97;33.22
9059;BME280;4564;42.034;25.834;2023-05-07T09:50:54;100500.16;;;22.83;34.93
9059;BME280;4564;42.034;25.834;2023-05-07T09:53:23;100492.00;;;22.71;34.72
9059;BME280;4564;42.034;25.834;2023-05-07T09:55:50;100490.97;;;22.77;34.32
9059;BME280;4564;42.034;25.834;2023-05-07T09:58:18;100490.13;;;22.77;33.55
9059;BME280;4564;42.034;25.834;2023-05-07T10:00:45;100489.38;;;22.59;33.95
9059;BME280;4564;42.034;25.834;2023-05-07T10:03:12;100488.94;;;22.73;34.06
9059;BME280;4564;42.034;25.834;2023-05-07T10:05:39;100475.56;;;22.91;35.24
9059;BME280;4564;42.034;25.834;2023-05-07T10:08:06;100482.91;;;23.08;34.97
9059;BME280;4564;42.034;25.834;2023-05-07T10:10:33;100489.31;;;23.13;35.16
9059;BME280;4564;42.034;25.834;2023-05-07T10:13:00;100482.56;;;22.99;33.18
9059;BME280;4564;42.034;25.834;2023-05-07T10:15:32;100485.59;;;22.97;33.54
9059;BME280;4564;42.034;25.834;2023-05-07T10:17:59;100484.25;;;22.73;33.75
9059;BME280;4564;42.034;25.834;2023-05-07T10:20:25;100500.44;;;22.86;33.99
9059;BME280;4564;42.034;25.834;2023-05-07T10:22:52;100484.19;;;22.68;33.39
9059;BME280;4564;42.034;25.834;2023-05-07T10:25:25;100484.94;;;22.85;33.40
9059;BME280;4564;42.034;25.834;2023-05-07T10:27:52;100478.03;;;22.88;34.16
9059;BME280;4564;42.034;25.834;2023-05-07T10:30:22;100480.28;;;22.91;34.59
9059;BME280;4564;42.034;25.834;2023-05-07T10:32:55;100477.47;;;22.86;33.29
9059;BME280;4564;42.034;25.834;2023-05-07T10:35:24;100475.84;;;22.63;33.06
9059;BME280;4564;42.034;25.834;2023-05-07T10:37:51;100470.78;;;22.55;33.63
9059;BME280;4564;42.034;25.834;2023-05-07T10:40:19;100469.13;;;22.54;33.74
9059;BME280;4564;42.034;25.834;2023-05-07T10:42:53;100463.59;;;22.81;33.51
9059;BME280;4564;42.034;25.834;2023-05-07T10:45:20;100457.00;;;22.87;33.83
9059;BME280;4564;42.034;25.834;2023-05-07T10:50:30;100446.75;;;22.87;33.80
9059;BME280;4564;42.034;25.834;2023-05-07T10:58:39;100463.66;;;23.28;34.47
9059;BME280;4564;42.034;25.834;2023-05-07T11:01:05;100442.63;;;22.90;34.48
9059;BME280;4564;42.034;25.834;2023-05-07T11:03:32;100441.66;;;22.74;34.44
9059;BME280;4564;42.034;25.834;2023-05-07T11:06:12;100451.88;;;22.74;34.19
9059;BME280;4564;42.034;25.834;2023-05-07T11:08:52;100437.03;;;22.85;34.30
9059;BME280;4564;42.034;25.834;2023-05-07T11:11:19;100436.53;;;22.61;34.71
9059;BME280;4564;42.034;25.834;2023-05-07T11:13:46;100436.16;;;22.79;35.21
9059;BME280;4564;42.034;25.834;2023-05-07T11:16:16;100438.50;;;22.92;33.53
9059;BME280;4564;42.034;25.834;2023-05-07T11:18:47;100437.53;;;22.77;33.16
9059;BME280;4564;42.034;25.834;2023-05-07T11:24:01;100437.78;;;22.75;33.55
9059;BME280;4564;42.034;25.834;2023-05-07T11:26:28;100432.91;;;22.87;33.61
9059;BME280;4564;42.034;25.834;2023-05-07T11:28:55;100425.13;;;22.84;33.70
9059;BME280;4564;42.034;25.834;2023-05-07T11:31:22;100426.63;;;22.97;34.12
9059;BME280;4564;42.034;25.834;2023-05-07T11:33:49;100431.19;;;23.18;33.44
9059;BME280;4564;42.034;25.834;2023-05-07T11:36:16;100426.50;;;23.19;33.63
9059;BME280;4564;42.034;25.834;2023-05-07T11:38:44;100421.19;;;23.12;32.63
9059;BME280;4564;42.034;25.834;2023-05-07T11:41:12;100415.88;;;23.06;33.29
9059;BME280;4564;42.034;25.834;2023-05-07T11:43:40;100430.00;;;23.04;34.89
9059;BME280;4564;42.034;25.834;2023-05-07T11:46:19;100423.97;;;23.17;35.00
9059;BME280;4564;42.034;25.834;2023-05-07T11:48:48;100422.06;;;23.18;33.38
9059;BME280;4564;42.034;25.834;2023-05-07T11:51:18;100424.81;;;23.18;34.35
9059;BME280;4564;42.034;25.834;2023-05-07T11:53:44;100421.91;;;22.97;34.11
9059;BME280;4564;42.034;25.834;2023-05-07T11:56:13;100423.31;;;23.00;34.30
9059;BME280;4564;42.034;25.834;2023-05-07T11:58:40;100407.25;;;22.97;32.72
9059;BME280;4564;42.034;25.834;2023-05-07T12:01:07;100418.94;;;23.04;33.80
9059;BME280;4564;42.034;25.834;2023-05-07T12:03:34;100407.84;;;23.04;34.00
9059;BME280;4564;42.034;25.834;2023-05-07T12:06:01;100410.03;;;23.02;33.80
9059;BME280;4564;42.034;25.834;2023-05-07T12:08:28;100405.28;;;22.92;34.11
9059;BME280;4564;42.034;25.834;2023-05-07T12:10:54;100406.41;;;22.96;32.88
9059;BME280;4564;42.034;25.834;2023-05-07T12:13:23;100388.09;;;22.90;34.67
9059;BME280;4564;42.034;25.834;2023-05-07T12:15:50;100394.72;;;22.89;34.14
9059;BME280;4564;42.034;25.834;2023-05-07T12:18:17;100384.56;;;23.00;34.60
9059;BME280;4564;42.034;25.834;2023-05-07T12:20:44;100384.59;;;23.05;33.30
9059;BME280;4564;42.034;25.834;2023-05-07T12:23:11;100382.63;;;23.00;33.73
9059;BME280;4564;42.034;25.834;2023-05-07T12:25:38;100384.06;;;23.08;34.26
9059;BME280;4564;42.034;25.834;2023-05-07T12:28:05;100386.88;;;23.18;33.11
9059;BME280;4564;42.034;25.834;2023-05-07T12:30:33;100381.91;;;23.15;33.09
9059;BME280;4564;42.034;25.834;2023-05-07T12:33:03;100387.69;;;23.14;33.36
9059;BME280;4564;42.034;25.834;2023-05-07T12:35:29;100370.28;;;23.18;33.17
9059;BME280;4564;42.034;25.834;2023-05-07T12:37:56;100377.19;;;23.16;32.79
9059;BME280;4564;42.034;25.834;2023-05-07T12:40:25;100379.69;;;23.17;32.73
9059;BME280;4564;42.034;25.834;2023-05-07T12:42:52;100373.78;;;23.04;32.68
9059;BME280;4564;42.034;25.834;2023-05-07T12:45:19;100363.41;;;22.84;33.29
9059;BME280;4564;42.034;25.834;2023-05-07T12:47:48;100361.78;;;22.88;34.15
9059;BME280;4564;42.034;25.834;2023-05-07T12:50:15;100369.03;;;22.94;33.91
9059;BME280;4564;42.034;25.834;2023-05-07T12:52:42;100372.75;;;23.15;33.83
9059;BME280;4564;42.034;25.834;2023-05-07T12:55:09;100366.19;;;23.26;32.44
9059;BME280;4564;42.034;25.834;2023-05-07T12:57:38;100364.25;;;23.26;32.81
9059;BME280;4564;42.034;25.834;2023-05-07T13:00:07;100352.03;;;23.27;33.64
9059;BME280;4564;42.034;25.834;2023-05-07T13:02:34;100352.31;;;23.26;32.73
9059;BME280;4564;42.034;25.834;2023-05-07T13:05:05;100343.75;;;23.32;33.18
9059;BME280;4564;42.034;25.834;2023-05-07T13:07:32;100344.03;;;23.26;32.78